Time;durP1;ratioP1;P1;durP2;ratioP2;P2;SDS_P1;SDS_P2;PMS_P1;PMS_P2;Temp;Humidity;BMP_temperature;BMP_pressure;BME280_temperature;BME280_humidity;BME280_pressure;Samples;Min_cycle;Max_cycle;Signal;HPM_P1;HPM_P2
2022/08/25 00:00:02;;;;;;;0.1;0.1;;;;;;;24.9;100.0;101370;;;;
2022/08/25 00:01:00;;;;;;;0.1;0.1;;;;;;;24.9;100.0;101370;;;;
2022/08/25 00:02:03;;;;;;;0.1;0.1;;;;;;;25.0;100.0;101360;;;;
2022/08/25 00:03:00;;;;;;;0.1;0.1;;;;;;;25.0;100.0;101360;;;;
2022/08/25 00:04:01;;;;;;;0.1;0.1;;;;;;;25.0;100.0;101360;;;;
2022/08/25 00:05:01;;;;;;;0.1;0.1;;;;;;;25.0;100.0;101360;;;;
2022/08/25 00:06:00;;;;;;;0.1;0.1;;;;;;;25.1;100.0;101370;;;;
2022/08/25 00:07:03;;;;;;;0.1;0.1;;;;;;;25.1;100.0;101370;;;;
2022/08/25 00:08:00;;;;;;;0.1;0.1;;;;;;;24.9;100.0;101370;;;;
2022/08/25 00:09:00;;;;;;;0.1;0.1;;;;;;;24.9;100.0;101370;;;;
2022/08/25 00:10:00;;;;;;;0.1;0.1;;;;;;;25.0;100.0;101370;;;;
2022/08/25 00:11:03;;;;;;;0.1;0.1;;;;;;;25.0;100.0;101370;;;;
2022/08/25 00:12:00;;;;;;;0.1;0.1;;;;;;;25.0;100.0;101370;;;;
2022/08/25 00:13:00;;;;;;;0.1;0.1;;;;;;;25.0;100.0;101370;;;;
2022/08/25 00:14:02;;;;;;;0.8;0.4;;;;;;;25.0;100.0;101370;;;;
2022/08/25 00:15:00;;;;;;;0.8;0.4;;;;;;;25.0;100.0;101370;;;;
2022/08/25 00:16:00;;;;;;;0.8;0.4;;;;;;;24.9;100.0;101360;;;;
2022/08/25 00:17:00;;;;;;;0.8;0.4;;;;;;;24.9;100.0;101360;;;;
2022/08/25 00:18:00;;;;;;;0.8;0.4;;;;;;;24.9;100.0;101360;;;;
2022/08/25 00:19:04;;;;;;;0.8;0.4;;;;;;;24.9;100.0;101360;;;;
2022/08/25 00:20:00;;;;;;;0.8;0.4;;;;;;;24.8;100.0;101360;;;;
2022/08/25 00:21:00;;;;;;;0.8;0.4;;;;;;;24.8;100.0;101360;;;;
2022/08/25 00:22:00;;;;;;;0.8;0.4;;;;;;;24.9;100.0;101360;;;;
2022/08/25 00:23:00;;;;;;;0.8;0.4;;;;;;;24.9;100.0;101360;;;;
2022/08/25 00:24:01;;;;;;;0.8;0.4;;;;;;;24.8;100.0;101360;;;;
2022/08/25 00:25:00;;;;;;;0.8;0.4;;;;;;;24.8;100.0;101360;;;;
2022/08/25 00:26:00;;;;;;;0.8;0.4;;;;;;;24.9;100.0;101360;;;;
2022/08/25 00:27:01;;;;;;;0.8;0.4;;;;;;;24.9;100.0;101360;;;;
2022/08/25 00:28:05;;;;;;;0.8;0.4;;;;;;;24.8;100.0;101360;;;;
2022/08/25 00:29:02;;;;;;;0.8;0.4;;;;;;;24.8;100.0;101360;;;;
2022/08/25 00:30:00;;;;;;;0.8;0.4;;;;;;;24.8;100.0;101360;;;;
2022/08/25 00:31:00;;;;;;;0.8;0.4;;;;;;;24.8;100.0;101360;;;;
2022/08/25 00:32:00;;;;;;;0.8;0.4;;;;;;;24.8;100.0;101360;;;;
2022/08/25 00:33:00;;;;;;;0.8;0.4;;;;;;;24.8;100.0;101360;;;;
2022/08/25 00:34:00;;;;;;;0.2;0.2;;;;;;;24.7;100.0;101360;;;;
2022/08/25 00:35:00;;;;;;;0.2;0.2;;;;;;;24.7;100.0;101360;;;;
2022/08/25 00:36:00;;;;;;;0.2;0.2;;;;;;;24.6;100.0;101360;;;;
2022/08/25 00:37:00;;;;;;;0.2;0.2;;;;;;;24.6;100.0;101360;;;;
2022/08/25 00:38:00;;;;;;;0.2;0.2;;;;;;;24.6;100.0;101360;;;;
2022/08/25 00:39:00;;;;;;;0.2;0.2;;;;;;;24.6;100.0;101360;;;;
2022/08/25 00:40:00;;;;;;;0.2;0.2;;;;;;;24.6;100.0;101360;;;;
2022/08/25 00:41:07;;;;;;;0.2;0.2;;;;;;;24.6;100.0;101360;;;;
2022/08/25 00:42:00;;;;;;;0.2;0.2;;;;;;;24.5;100.0;101370;;;;
2022/08/25 00:43:00;;;;;;;0.2;0.2;;;;;;;24.5;100.0;101370;;;;
2022/08/25 00:44:00;;;;;;;0.2;0.2;;;;;;;24.5;100.0;101370;;;;
2022/08/25 00:45:00;;;;;;;0.2;0.2;;;;;;;24.5;100.0;101370;;;;
2022/08/25 00:46:00;;;;;;;0.2;0.2;;;;;;;24.5;100.0;101370;;;;
2022/08/25 00:47:01;;;;;;;0.2;0.2;;;;;;;24.5;100.0;101370;;;;
2022/08/25 00:48:00;;;;;;;0.2;0.2;;;;;;;24.5;100.0;101370;;;;
2022/08/25 00:49:04;;;;;;;0.2;0.2;;;;;;;24.5;100.0;101370;;;;
2022/08/25 00:50:02;;;;;;;0.2;0.2;;;;;;;24.4;100.0;101370;;;;
2022/08/25 00:51:01;;;;;;;0.2;0.2;;;;;;;24.4;100.0;101370;;;;
2022/08/25 00:52:02;;;;;;;0.2;0.2;;;;;;;24.4;100.0;101370;;;;
2022/08/25 00:53:03;;;;;;;0.2;0.2;;;;;;;24.4;100.0;101370;;;;
2022/08/25 00:54:00;;;;;;;0.2;0.2;;;;;;;24.5;100.0;101370;;;;
2022/08/25 00:55:08;;;;;;;0.2;0.2;;;;;;;24.4;100.0;101370;;;;
2022/08/25 00:56:00;;;;;;;0.2;0.2;;;;;;;24.4;100.0;101370;;;;
2022/08/25 00:57:00;;;;;;;0.2;0.2;;;;;;;24.4;100.0;101370;;;;
2022/08/25 00:58:12;;;;;;;0.2;0.2;;;;;;;24.5;100.0;101370;;;;
2022/08/25 00:59:02;;;;;;;0.2;0.2;;;;;;;24.5;100.0;101370;;;;
2022/08/25 01:00:00;;;;;;;0.2;0.2;;;;;;;24.4;100.0;101370;;;;
2022/08/25 01:01:00;;;;;;;0.2;0.2;;;;;;;24.4;100.0;101370;;;;
2022/08/25 01:02:00;;;;;;;0.2;0.2;;;;;;;24.4;100.0;101370;;;;
2022/08/25 01:03:00;;;;;;;0.2;0.2;;;;;;;24.4;100.0;101370;;;;
2022/08/25 01:04:00;;;;;;;0.2;0.2;;;;;;;24.4;100.0;101370;;;;
2022/08/25 01:05:00;;;;;;;0.2;0.2;;;;;;;24.4;100.0;101370;;;;
2022/08/25 01:06:01;;;;;;;0.2;0.2;;;;;;;24.3;100.0;101370;;;;
2022/08/25 01:07:01;;;;;;;0.2;0.2;;;;;;;24.3;100.0;101370;;;;
2022/08/25 01:08:02;;;;;;;0.2;0.2;;;;;;;24.3;100.0;101370;;;;
2022/08/25 01:09:00;;;;;;;0.2;0.2;;;;;;;24.3;100.0;101370;;;;
2022/08/25 01:10:00;;;;;;;0.2;0.2;;;;;;;24.2;100.0;101370;;;;
2022/08/25 01:11:01;;;;;;;0.2;0.2;;;;;;;24.2;100.0;101370;;;;
2022/08/25 01:12:00;;;;;;;0.2;0.2;;;;;;;24.3;100.0;101370;;;;
2022/08/25 01:13:05;;;;;;;0.2;0.2;;;;;;;24.3;100.0;101370;;;;
2022/08/25 01:14:05;;;;;;;0.1;0.1;;;;;;;24.3;100.0;101360;;;;
2022/08/25 01:15:00;;;;;;;0.1;0.1;;;;;;;24.3;100.0;101360;;;;
2022/08/25 01:16:00;;;;;;;0.1;0.1;;;;;;;24.3;100.0;101360;;;;
2022/08/25 01:17:00;;;;;;;0.1;0.1;;;;;;;24.3;100.0;101360;;;;
2022/08/25 01:18:00;;;;;;;0.1;0.1;;;;;;;24.2;100.0;101360;;;;
2022/08/25 01:19:00;;;;;;;0.1;0.1;;;;;;;24.2;100.0;101360;;;;
2022/08/25 01:20:00;;;;;;;0.1;0.1;;;;;;;24.1;100.0;101360;;;;
2022/08/25 01:21:00;;;;;;;0.1;0.1;;;;;;;24.1;100.0;101360;;;;
2022/08/25 01:22:00;;;;;;;0.1;0.1;;;;;;;24.1;100.0;101360;;;;
2022/08/25 01:23:00;;;;;;;0.1;0.1;;;;;;;24.1;100.0;101360;;;;
2022/08/25 01:24:00;;;;;;;0.1;0.1;;;;;;;24.1;100.0;101370;;;;
2022/08/25 01:25:02;;;;;;;0.1;0.1;;;;;;;24.1;100.0;101370;;;;
2022/08/25 01:26:04;;;;;;;0.1;0.1;;;;;;;24.0;100.0;101370;;;;
2022/08/25 01:27:00;;;;;;;0.1;0.1;;;;;;;24.0;100.0;101370;;;;
2022/08/25 01:28:00;;;;;;;0.1;0.1;;;;;;;24.1;100.0;101370;;;;
2022/08/25 01:30:00;;;;;;;0.1;0.1;;;;;;;24.0;100.0;101370;;;;
2022/08/25 01:31:00;;;;;;;0.1;0.1;;;;;;;24.0;100.0;101370;;;;
2022/08/25 01:32:02;;;;;;;0.1;0.1;;;;;;;24.0;100.0;101370;;;;
2022/08/25 01:33:02;;;;;;;0.1;0.1;;;;;;;24.0;100.0;101370;;;;
2022/08/25 01:34:00;;;;;;;0.2;0.2;;;;;;;23.8;100.0;101380;;;;
2022/08/25 01:35:00;;;;;;;0.2;0.2;;;;;;;23.8;100.0;101380;;;;
2022/08/25 01:36:00;;;;;;;0.2;0.2;;;;;;;23.9;100.0;101380;;;;
2022/08/25 01:37:00;;;;;;;0.2;0.2;;;;;;;23.9;100.0;101380;;;;
2022/08/25 01:38:01;;;;;;;0.2;0.2;;;;;;;23.9;100.0;101370;;;;
2022/08/25 01:39:00;;;;;;;0.2;0.2;;;;;;;23.9;100.0;101370;;;;
2022/08/25 01:40:00;;;;;;;0.2;0.2;;;;;;;23.6;100.0;101370;;;;
2022/08/25 01:41:00;;;;;;;0.2;0.2;;;;;;;23.6;100.0;101370;;;;
2022/08/25 01:42:10;;;;;;;0.2;0.2;;;;;;;23.8;100.0;101370;;;;
2022/08/25 01:43:06;;;;;;;0.2;0.2;;;;;;;23.8;100.0;101370;;;;
2022/08/25 01:44:01;;;;;;;0.2;0.2;;;;;;;23.8;100.0;101370;;;;
2022/08/25 01:45:00;;;;;;;0.2;0.2;;;;;;;23.8;100.0;101370;;;;
2022/08/25 01:46:00;;;;;;;0.2;0.2;;;;;;;23.9;100.0;101370;;;;
2022/08/25 01:47:00;;;;;;;0.2;0.2;;;;;;;23.9;100.0;101370;;;;
2022/08/25 01:48:00;;;;;;;0.2;0.2;;;;;;;23.7;100.0;101370;;;;
2022/08/25 01:49:06;;;;;;;0.2;0.2;;;;;;;23.7;100.0;101370;;;;
2022/08/25 01:50:00;;;;;;;0.2;0.2;;;;;;;23.7;100.0;101370;;;;
2022/08/25 01:51:00;;;;;;;0.2;0.2;;;;;;;23.7;100.0;101370;;;;
2022/08/25 01:52:04;;;;;;;0.2;0.2;;;;;;;23.7;100.0;101370;;;;
2022/08/25 01:53:06;;;;;;;0.2;0.2;;;;;;;23.7;100.0;101370;;;;
2022/08/25 01:54:00;;;;;;;0.2;0.2;;;;;;;23.6;100.0;101370;;;;
2022/08/25 01:55:00;;;;;;;0.2;0.2;;;;;;;23.6;100.0;101370;;;;
2022/08/25 01:56:10;;;;;;;0.2;0.2;;;;;;;23.6;100.0;101370;;;;
2022/08/25 01:57:00;;;;;;;0.2;0.2;;;;;;;23.6;100.0;101370;;;;
2022/08/25 01:58:00;;;;;;;0.2;0.2;;;;;;;23.6;100.0;101370;;;;
2022/08/25 01:59:00;;;;;;;0.2;0.2;;;;;;;23.6;100.0;101370;;;;
2022/08/25 02:00:00;;;;;;;0.2;0.2;;;;;;;23.3;100.0;101370;;;;
2022/08/25 02:01:01;;;;;;;0.2;0.2;;;;;;;23.3;100.0;101370;;;;
2022/08/25 02:02:00;;;;;;;0.2;0.2;;;;;;;23.4;100.0;101370;;;;
2022/08/25 02:03:00;;;;;;;0.2;0.2;;;;;;;23.4;100.0;101370;;;;
2022/08/25 02:04:00;;;;;;;0.2;0.2;;;;;;;23.5;100.0;101370;;;;
2022/08/25 02:05:00;;;;;;;0.2;0.2;;;;;;;23.5;100.0;101370;;;;
2022/08/25 02:06:00;;;;;;;0.2;0.2;;;;;;;23.4;100.0;101370;;;;
2022/08/25 02:07:02;;;;;;;0.2;0.2;;;;;;;23.4;100.0;101370;;;;
2022/08/25 02:08:00;;;;;;;0.2;0.2;;;;;;;23.3;100.0;101370;;;;
2022/08/25 02:09:03;;;;;;;0.2;0.2;;;;;;;23.3;100.0;101370;;;;
2022/08/25 02:10:03;;;;;;;0.2;0.2;;;;;;;23.1;100.0;101370;;;;
2022/08/25 02:11:00;;;;;;;0.2;0.2;;;;;;;23.1;100.0;101370;;;;
2022/08/25 02:12:00;;;;;;;0.2;0.2;;;;;;;23.3;100.0;101370;;;;
2022/08/25 02:13:00;;;;;;;0.2;0.2;;;;;;;23.3;100.0;101370;;;;
2022/08/25 02:14:00;;;;;;;0.2;0.2;;;;;;;23.2;100.0;101370;;;;
2022/08/25 02:15:01;;;;;;;0.2;0.2;;;;;;;23.2;100.0;101370;;;;
2022/08/25 02:16:01;;;;;;;0.2;0.2;;;;;;;23.2;100.0;101370;;;;
2022/08/25 02:17:00;;;;;;;0.2;0.2;;;;;;;23.2;100.0;101370;;;;
2022/08/25 02:18:00;;;;;;;0.2;0.2;;;;;;;23.3;100.0;101370;;;;
2022/08/25 02:19:00;;;;;;;0.2;0.2;;;;;;;23.3;100.0;101370;;;;
2022/08/25 02:20:00;;;;;;;0.2;0.2;;;;;;;23.1;100.0;101370;;;;
2022/08/25 02:21:00;;;;;;;0.2;0.2;;;;;;;23.1;100.0;101370;;;;
2022/08/25 02:22:00;;;;;;;0.2;0.2;;;;;;;23.1;100.0;101360;;;;
2022/08/25 02:23:00;;;;;;;0.2;0.2;;;;;;;23.1;100.0;101360;;;;
2022/08/25 02:24:00;;;;;;;0.2;0.2;;;;;;;23.1;100.0;101370;;;;
2022/08/25 02:25:00;;;;;;;0.2;0.2;;;;;;;23.1;100.0;101370;;;;
2022/08/25 02:26:00;;;;;;;0.2;0.2;;;;;;;23.1;100.0;101370;;;;
2022/08/25 02:27:00;;;;;;;0.2;0.2;;;;;;;23.1;100.0;101370;;;;
2022/08/25 02:28:00;;;;;;;0.2;0.2;;;;;;;23.1;100.0;101370;;;;
2022/08/25 02:29:00;;;;;;;0.2;0.2;;;;;;;23.1;100.0;101370;;;;
2022/08/25 02:30:00;;;;;;;0.2;0.2;;;;;;;23.1;100.0;101370;;;;
2022/08/25 02:31:01;;;;;;;0.2;0.2;;;;;;;23.1;100.0;101370;;;;
2022/08/25 02:32:01;;;;;;;0.2;0.2;;;;;;;23.0;100.0;101360;;;;
2022/08/25 02:33:00;;;;;;;0.2;0.2;;;;;;;23.0;100.0;101360;;;;
2022/08/25 02:34:01;;;;;;;0.4;0.4;;;;;;;22.8;100.0;101370;;;;
2022/08/25 02:35:00;;;;;;;0.4;0.4;;;;;;;22.8;100.0;101370;;;;
2022/08/25 02:36:00;;;;;;;0.4;0.4;;;;;;;23.0;100.0;101360;;;;
2022/08/25 02:37:00;;;;;;;0.4;0.4;;;;;;;23.0;100.0;101360;;;;
2022/08/25 02:38:00;;;;;;;0.4;0.4;;;;;;;23.0;100.0;101360;;;;
2022/08/25 02:39:00;;;;;;;0.4;0.4;;;;;;;23.0;100.0;101360;;;;
2022/08/25 02:40:00;;;;;;;0.4;0.4;;;;;;;23.0;100.0;101360;;;;
2022/08/25 02:41:00;;;;;;;0.4;0.4;;;;;;;23.0;100.0;101360;;;;
2022/08/25 02:42:00;;;;;;;0.4;0.4;;;;;;;22.8;100.0;101360;;;;
2022/08/25 02:43:01;;;;;;;0.4;0.4;;;;;;;22.8;100.0;101360;;;;
2022/08/25 02:44:01;;;;;;;0.4;0.4;;;;;;;22.8;100.0;101360;;;;
2022/08/25 02:45:00;;;;;;;0.4;0.4;;;;;;;22.8;100.0;101360;;;;
2022/08/25 02:46:00;;;;;;;0.4;0.4;;;;;;;22.9;100.0;101350;;;;
2022/08/25 02:47:00;;;;;;;0.4;0.4;;;;;;;22.9;100.0;101350;;;;
2022/08/25 02:48:00;;;;;;;0.4;0.4;;;;;;;22.9;100.0;101350;;;;
2022/08/25 02:49:00;;;;;;;0.4;0.4;;;;;;;22.9;100.0;101350;;;;
2022/08/25 02:50:00;;;;;;;0.4;0.4;;;;;;;22.8;100.0;101350;;;;
2022/08/25 02:51:00;;;;;;;0.4;0.4;;;;;;;22.8;100.0;101350;;;;
2022/08/25 02:52:01;;;;;;;0.4;0.4;;;;;;;22.7;100.0;101350;;;;
2022/08/25 02:53:00;;;;;;;0.4;0.4;;;;;;;22.7;100.0;101350;;;;
2022/08/25 02:54:01;;;;;;;0.4;0.4;;;;;;;22.7;100.0;101350;;;;
2022/08/25 02:55:03;;;;;;;0.4;0.4;;;;;;;22.7;100.0;101350;;;;
2022/08/25 02:56:00;;;;;;;0.4;0.4;;;;;;;22.7;100.0;101350;;;;
2022/08/25 02:57:00;;;;;;;0.4;0.4;;;;;;;22.7;100.0;101350;;;;
2022/08/25 02:58:00;;;;;;;0.4;0.4;;;;;;;22.7;100.0;101360;;;;
2022/08/25 02:59:01;;;;;;;0.4;0.4;;;;;;;22.7;100.0;101360;;;;
2022/08/25 03:00:00;;;;;;;0.4;0.4;;;;;;;22.5;100.0;101350;;;;
2022/08/25 03:01:00;;;;;;;0.4;0.4;;;;;;;22.5;100.0;101350;;;;
2022/08/25 03:02:00;;;;;;;0.4;0.4;;;;;;;22.6;100.0;101350;;;;
2022/08/25 03:03:00;;;;;;;0.4;0.4;;;;;;;22.6;100.0;101350;;;;
2022/08/25 03:04:00;;;;;;;0.4;0.4;;;;;;;22.6;100.0;101350;;;;
2022/08/25 03:05:00;;;;;;;0.4;0.4;;;;;;;22.6;100.0;101350;;;;
2022/08/25 03:06:00;;;;;;;0.4;0.4;;;;;;;22.6;100.0;101350;;;;
2022/08/25 03:07:00;;;;;;;0.4;0.4;;;;;;;22.6;100.0;101350;;;;
2022/08/25 03:08:00;;;;;;;0.4;0.4;;;;;;;22.5;100.0;101340;;;;
2022/08/25 03:09:00;;;;;;;0.4;0.4;;;;;;;22.5;100.0;101340;;;;
2022/08/25 03:10:03;;;;;;;0.4;0.4;;;;;;;22.6;100.0;101340;;;;
2022/08/25 03:11:00;;;;;;;0.4;0.4;;;;;;;22.6;100.0;101340;;;;
2022/08/25 03:12:00;;;;;;;0.4;0.4;;;;;;;22.3;100.0;101340;;;;
2022/08/25 03:13:00;;;;;;;0.4;0.4;;;;;;;22.3;100.0;101340;;;;
2022/08/25 03:14:00;;;;;;;0.2;0.2;;;;;;;22.5;100.0;101340;;;;
2022/08/25 03:15:01;;;;;;;0.2;0.2;;;;;;;22.5;100.0;101340;;;;
2022/08/25 03:16:02;;;;;;;0.2;0.2;;;;;;;22.4;100.0;101340;;;;
2022/08/25 03:17:00;;;;;;;0.2;0.2;;;;;;;22.4;100.0;101340;;;;
2022/08/25 03:18:01;;;;;;;0.2;0.2;;;;;;;22.1;100.0;101340;;;;
2022/08/25 03:19:00;;;;;;;0.2;0.2;;;;;;;22.1;100.0;101340;;;;
2022/08/25 03:20:00;;;;;;;0.2;0.2;;;;;;;22.2;100.0;101330;;;;
2022/08/25 03:21:00;;;;;;;0.2;0.2;;;;;;;22.2;100.0;101330;;;;
2022/08/25 03:22:00;;;;;;;0.2;0.2;;;;;;;22.2;100.0;101340;;;;
2022/08/25 03:23:01;;;;;;;0.2;0.2;;;;;;;22.2;100.0;101340;;;;
2022/08/25 03:24:00;;;;;;;0.2;0.2;;;;;;;22.2;100.0;101330;;;;
2022/08/25 03:27:00;;;;;;;0.2;0.2;;;;;;;22.2;100.0;101330;;;;
2022/08/25 03:28:00;;;;;;;0.2;0.2;;;;;;;22.1;100.0;101340;;;;
2022/08/25 03:29:03;;;;;;;0.2;0.2;;;;;;;22.1;100.0;101340;;;;
2022/08/25 03:30:02;;;;;;;0.2;0.2;;;;;;;22.2;100.0;101330;;;;
2022/08/25 03:31:00;;;;;;;0.2;0.2;;;;;;;22.2;100.0;101330;;;;
2022/08/25 03:32:00;;;;;;;0.2;0.2;;;;;;;22.0;100.0;101330;;;;
2022/08/25 03:33:00;;;;;;;0.2;0.2;;;;;;;22.0;100.0;101330;;;;
2022/08/25 03:34:00;;;;;;;0.2;0.2;;;;;;;22.0;100.0;101330;;;;
2022/08/25 03:35:00;;;;;;;0.2;0.2;;;;;;;22.0;100.0;101330;;;;
2022/08/25 03:36:00;;;;;;;0.2;0.2;;;;;;;21.7;100.0;101330;;;;
2022/08/25 03:37:00;;;;;;;0.2;0.2;;;;;;;21.7;100.0;101330;;;;
2022/08/25 03:38:00;;;;;;;0.2;0.2;;;;;;;21.7;100.0;101320;;;;
2022/08/25 03:39:00;;;;;;;0.2;0.2;;;;;;;21.7;100.0;101320;;;;
2022/08/25 03:40:01;;;;;;;0.2;0.2;;;;;;;21.8;100.0;101330;;;;
2022/08/25 03:41:00;;;;;;;0.2;0.2;;;;;;;21.8;100.0;101330;;;;
2022/08/25 03:42:01;;;;;;;0.2;0.2;;;;;;;21.7;100.0;101320;;;;
2022/08/25 03:43:00;;;;;;;0.2;0.2;;;;;;;21.7;100.0;101320;;;;
2022/08/25 03:44:01;;;;;;;0.2;0.2;;;;;;;21.9;100.0;101320;;;;
2022/08/25 03:45:02;;;;;;;0.2;0.2;;;;;;;21.9;100.0;101320;;;;
2022/08/25 03:46:00;;;;;;;0.2;0.2;;;;;;;22.0;100.0;101320;;;;
2022/08/25 03:47:00;;;;;;;0.2;0.2;;;;;;;22.0;100.0;101320;;;;
2022/08/25 03:48:00;;;;;;;0.2;0.2;;;;;;;21.9;100.0;101320;;;;
2022/08/25 03:49:01;;;;;;;0.2;0.2;;;;;;;21.9;100.0;101320;;;;
2022/08/25 03:50:00;;;;;;;0.2;0.2;;;;;;;21.9;100.0;101320;;;;
2022/08/25 03:51:00;;;;;;;0.2;0.2;;;;;;;21.9;100.0;101320;;;;
2022/08/25 03:52:00;;;;;;;0.2;0.2;;;;;;;21.8;100.0;101320;;;;
2022/08/25 03:53:00;;;;;;;0.2;0.2;;;;;;;21.8;100.0;101320;;;;
2022/08/25 03:54:01;;;;;;;0.2;0.2;;;;;;;21.9;100.0;101310;;;;
2022/08/25 03:55:01;;;;;;;0.2;0.2;;;;;;;21.9;100.0;101310;;;;
2022/08/25 03:56:00;;;;;;;0.2;0.2;;;;;;;21.9;100.0;101310;;;;
2022/08/25 03:57:00;;;;;;;0.2;0.2;;;;;;;21.9;100.0;101310;;;;
2022/08/25 03:58:00;;;;;;;0.2;0.2;;;;;;;21.9;100.0;101310;;;;
2022/08/25 03:59:00;;;;;;;0.2;0.2;;;;;;;21.9;100.0;101310;;;;
2022/08/25 04:00:00;;;;;;;0.2;0.2;;;;;;;21.9;100.0;101300;;;;
2022/08/25 04:01:00;;;;;;;0.2;0.2;;;;;;;21.9;100.0;101300;;;;
2022/08/25 04:02:01;;;;;;;0.2;0.2;;;;;;;21.7;100.0;101310;;;;
2022/08/25 04:03:00;;;;;;;0.2;0.2;;;;;;;21.7;100.0;101310;;;;
2022/08/25 04:04:00;;;;;;;0.2;0.2;;;;;;;21.9;100.0;101310;;;;
2022/08/25 04:05:00;;;;;;;0.2;0.2;;;;;;;21.9;100.0;101310;;;;
2022/08/25 04:06:01;;;;;;;0.2;0.2;;;;;;;21.9;100.0;101310;;;;
2022/08/25 04:07:01;;;;;;;0.2;0.2;;;;;;;21.9;100.0;101310;;;;
2022/08/25 04:08:00;;;;;;;0.2;0.2;;;;;;;21.9;100.0;101300;;;;
2022/08/25 04:09:00;;;;;;;0.2;0.2;;;;;;;21.9;100.0;101300;;;;
2022/08/25 04:10:00;;;;;;;0.2;0.2;;;;;;;21.9;100.0;101300;;;;
2022/08/25 04:11:04;;;;;;;0.2;0.2;;;;;;;21.9;100.0;101300;;;;
2022/08/25 04:12:00;;;;;;;0.2;0.2;;;;;;;21.9;100.0;101300;;;;
2022/08/25 04:13:00;;;;;;;0.2;0.2;;;;;;;21.9;100.0;101300;;;;
2022/08/25 04:14:01;;;;;;;0.2;0.2;;;;;;;21.9;100.0;101300;;;;
2022/08/25 04:15:00;;;;;;;0.2;0.2;;;;;;;21.9;100.0;101300;;;;
2022/08/25 04:16:00;;;;;;;0.2;0.2;;;;;;;22.0;100.0;101290;;;;
2022/08/25 04:17:00;;;;;;;0.2;0.2;;;;;;;22.0;100.0;101290;;;;
2022/08/25 04:18:00;;;;;;;0.2;0.2;;;;;;;21.9;100.0;101290;;;;
2022/08/25 04:19:02;;;;;;;0.2;0.2;;;;;;;21.9;100.0;101290;;;;
2022/08/25 04:20:00;;;;;;;0.2;0.2;;;;;;;21.9;100.0;101290;;;;
2022/08/25 04:21:00;;;;;;;0.2;0.2;;;;;;;21.9;100.0;101290;;;;
2022/08/25 04:22:00;;;;;;;0.2;0.2;;;;;;;21.9;100.0;101290;;;;
2022/08/25 04:23:00;;;;;;;0.2;0.2;;;;;;;21.9;100.0;101290;;;;
2022/08/25 04:24:00;;;;;;;0.2;0.2;;;;;;;21.9;100.0;101290;;;;
2022/08/25 04:25:00;;;;;;;0.2;0.2;;;;;;;21.9;100.0;101290;;;;
2022/08/25 04:26:00;;;;;;;0.2;0.2;;;;;;;21.9;100.0;101290;;;;
2022/08/25 04:27:00;;;;;;;0.2;0.2;;;;;;;21.9;100.0;101290;;;;
2022/08/25 04:28:00;;;;;;;0.2;0.2;;;;;;;21.8;100.0;101290;;;;
2022/08/25 04:29:02;;;;;;;0.2;0.2;;;;;;;21.8;100.0;101290;;;;
2022/08/25 04:30:00;;;;;;;0.2;0.2;;;;;;;21.8;100.0;101290;;;;
2022/08/25 04:31:00;;;;;;;0.2;0.2;;;;;;;21.8;100.0;101290;;;;
2022/08/25 04:32:00;;;;;;;0.2;0.2;;;;;;;21.6;100.0;101290;;;;
2022/08/25 04:33:00;;;;;;;0.2;0.2;;;;;;;21.6;100.0;101290;;;;
2022/08/25 04:34:01;;;;;;;0.1;0.1;;;;;;;21.8;100.0;101290;;;;
2022/08/25 04:35:00;;;;;;;0.1;0.1;;;;;;;21.8;100.0;101290;;;;
2022/08/25 04:36:00;;;;;;;0.1;0.1;;;;;;;21.8;100.0;101290;;;;
2022/08/25 04:37:01;;;;;;;0.1;0.1;;;;;;;21.8;100.0;101290;;;;
2022/08/25 04:38:01;;;;;;;0.1;0.1;;;;;;;21.8;100.0;101290;;;;
2022/08/25 04:39:00;;;;;;;0.1;0.1;;;;;;;21.8;100.0;101290;;;;
2022/08/25 04:40:00;;;;;;;0.1;0.1;;;;;;;21.8;100.0;101290;;;;
2022/08/25 04:41:01;;;;;;;0.1;0.1;;;;;;;21.8;100.0;101290;;;;
2022/08/25 04:42:00;;;;;;;0.1;0.1;;;;;;;21.8;100.0;101290;;;;
2022/08/25 04:43:00;;;;;;;0.1;0.1;;;;;;;21.8;100.0;101290;;;;
2022/08/25 04:44:01;;;;;;;0.1;0.1;;;;;;;21.8;100.0;101290;;;;
2022/08/25 04:45:00;;;;;;;0.1;0.1;;;;;;;21.8;100.0;101290;;;;
2022/08/25 04:46:05;;;;;;;0.1;0.1;;;;;;;21.8;100.0;101290;;;;
2022/08/25 04:47:00;;;;;;;0.1;0.1;;;;;;;21.8;100.0;101290;;;;
2022/08/25 04:48:00;;;;;;;0.1;0.1;;;;;;;21.7;100.0;101290;;;;
2022/08/25 04:49:00;;;;;;;0.1;0.1;;;;;;;21.7;100.0;101290;;;;
2022/08/25 04:50:00;;;;;;;0.1;0.1;;;;;;;21.6;100.0;101290;;;;
2022/08/25 04:51:04;;;;;;;0.1;0.1;;;;;;;21.6;100.0;101290;;;;
2022/08/25 04:52:00;;;;;;;0.1;0.1;;;;;;;21.8;100.0;101290;;;;
2022/08/25 04:53:00;;;;;;;0.1;0.1;;;;;;;21.8;100.0;101290;;;;
2022/08/25 04:54:01;;;;;;;0.4;0.4;;;;;;;21.6;100.0;101290;;;;
2022/08/25 04:55:00;;;;;;;0.4;0.4;;;;;;;21.6;100.0;101290;;;;
2022/08/25 04:56:04;;;;;;;0.4;0.4;;;;;;;21.7;100.0;101290;;;;
2022/08/25 04:57:00;;;;;;;0.4;0.4;;;;;;;21.7;100.0;101290;;;;
2022/08/25 04:58:00;;;;;;;0.4;0.4;;;;;;;21.7;100.0;101290;;;;
2022/08/25 04:59:01;;;;;;;0.4;0.4;;;;;;;21.7;100.0;101290;;;;
2022/08/25 05:00:00;;;;;;;0.4;0.4;;;;;;;21.7;100.0;101290;;;;
2022/08/25 05:01:01;;;;;;;0.4;0.4;;;;;;;21.7;100.0;101290;;;;
2022/08/25 05:02:01;;;;;;;0.4;0.4;;;;;;;21.7;100.0;101280;;;;
2022/08/25 05:03:01;;;;;;;0.4;0.4;;;;;;;21.7;100.0;101280;;;;
2022/08/25 05:04:01;;;;;;;0.4;0.4;;;;;;;21.5;100.0;101290;;;;
2022/08/25 05:05:02;;;;;;;0.4;0.4;;;;;;;21.5;100.0;101290;;;;
2022/08/25 05:06:00;;;;;;;0.4;0.4;;;;;;;21.6;100.0;101290;;;;
2022/08/25 05:07:00;;;;;;;0.4;0.4;;;;;;;21.6;100.0;101290;;;;
2022/08/25 05:08:00;;;;;;;0.4;0.4;;;;;;;21.6;100.0;101280;;;;
2022/08/25 05:09:02;;;;;;;0.4;0.4;;;;;;;21.6;100.0;101280;;;;
2022/08/25 05:10:00;;;;;;;0.4;0.4;;;;;;;21.6;100.0;101290;;;;
2022/08/25 05:11:08;;;;;;;0.4;0.4;;;;;;;21.5;100.0;101280;;;;
2022/08/25 05:12:01;;;;;;;0.4;0.4;;;;;;;21.5;100.0;101280;;;;
2022/08/25 05:13:00;;;;;;;0.4;0.4;;;;;;;21.5;100.0;101280;;;;
2022/08/25 05:14:00;;;;;;;0.4;0.4;;;;;;;21.7;100.0;101280;;;;
2022/08/25 05:15:48;;;;;;;0.4;0.4;;;;;;;21.7;100.0;101280;;;;
2022/08/25 05:16:01;;;;;;;0.4;0.4;;;;;;;21.7;100.0;101290;;;;
2022/08/25 05:17:00;;;;;;;0.4;0.4;;;;;;;21.7;100.0;101290;;;;
2022/08/25 05:18:00;;;;;;;0.4;0.4;;;;;;;21.6;100.0;101290;;;;
2022/08/25 05:19:00;;;;;;;0.4;0.4;;;;;;;21.6;100.0;101290;;;;
2022/08/25 05:20:00;;;;;;;0.4;0.4;;;;;;;21.6;100.0;101290;;;;
2022/08/25 05:21:02;;;;;;;0.4;0.4;;;;;;;21.6;100.0;101290;;;;
2022/08/25 05:22:00;;;;;;;0.4;0.4;;;;;;;21.6;100.0;101300;;;;
2022/08/25 05:23:00;;;;;;;0.4;0.4;;;;;;;21.6;100.0;101300;;;;
2022/08/25 05:24:00;;;;;;;0.4;0.4;;;;;;;21.7;100.0;101300;;;;
2022/08/25 05:25:00;;;;;;;0.4;0.4;;;;;;;21.7;100.0;101300;;;;
2022/08/25 05:26:03;;;;;;;0.4;0.4;;;;;;;21.6;100.0;101300;;;;
2022/08/25 05:27:00;;;;;;;0.4;0.4;;;;;;;21.6;100.0;101300;;;;
2022/08/25 05:28:00;;;;;;;0.4;0.4;;;;;;;21.7;100.0;101310;;;;
2022/08/25 05:29:02;;;;;;;0.4;0.4;;;;;;;21.7;100.0;101310;;;;
2022/08/25 05:30:00;;;;;;;0.4;0.4;;;;;;;21.7;100.0;101310;;;;
2022/08/25 05:31:01;;;;;;;0.4;0.4;;;;;;;21.7;100.0;101310;;;;
2022/08/25 05:32:00;;;;;;;0.4;0.4;;;;;;;21.7;100.0;101310;;;;
2022/08/25 05:33:01;;;;;;;0.4;0.4;;;;;;;21.7;100.0;101310;;;;
2022/08/25 05:34:04;;;;;;;0.4;0.4;;;;;;;21.8;100.0;101320;;;;
2022/08/25 05:35:00;;;;;;;0.4;0.4;;;;;;;21.8;100.0;101320;;;;
2022/08/25 05:36:00;;;;;;;0.4;0.4;;;;;;;21.9;100.0;101320;;;;
2022/08/25 05:37:02;;;;;;;0.4;0.4;;;;;;;21.9;100.0;101320;;;;
2022/08/25 05:38:00;;;;;;;0.4;0.4;;;;;;;21.9;100.0;101320;;;;
2022/08/25 05:39:00;;;;;;;0.4;0.4;;;;;;;21.9;100.0;101320;;;;
2022/08/25 05:40:00;;;;;;;0.4;0.4;;;;;;;21.9;100.0;101320;;;;
2022/08/25 05:41:03;;;;;;;0.4;0.4;;;;;;;21.9;100.0;101320;;;;
2022/08/25 05:42:00;;;;;;;0.4;0.4;;;;;;;21.9;100.0;101320;;;;
2022/08/25 05:43:00;;;;;;;0.4;0.4;;;;;;;21.9;100.0;101320;;;;
2022/08/25 05:44:00;;;;;;;0.4;0.4;;;;;;;21.9;100.0;101320;;;;
2022/08/25 05:45:00;;;;;;;0.4;0.4;;;;;;;21.9;100.0;101320;;;;
2022/08/25 05:46:00;;;;;;;0.4;0.4;;;;;;;21.8;100.0;101330;;;;
2022/08/25 05:47:00;;;;;;;0.4;0.4;;;;;;;21.8;100.0;101330;;;;
2022/08/25 05:48:00;;;;;;;0.4;0.4;;;;;;;21.9;100.0;101330;;;;
2022/08/25 05:49:00;;;;;;;0.4;0.4;;;;;;;21.9;100.0;101330;;;;
2022/08/25 05:50:00;;;;;;;0.4;0.4;;;;;;;22.0;100.0;101330;;;;
2022/08/25 05:51:01;;;;;;;0.4;0.4;;;;;;;22.0;100.0;101330;;;;
2022/08/25 05:52:00;;;;;;;0.4;0.4;;;;;;;22.0;100.0;101320;;;;
2022/08/25 05:53:00;;;;;;;0.4;0.4;;;;;;;22.0;100.0;101320;;;;
2022/08/25 05:54:00;;;;;;;0.2;0.2;;;;;;;22.1;100.0;101320;;;;
2022/08/25 05:55:00;;;;;;;0.2;0.2;;;;;;;22.1;100.0;101320;;;;
2022/08/25 05:56:00;;;;;;;0.2;0.2;;;;;;;22.0;100.0;101320;;;;
2022/08/25 05:57:00;;;;;;;0.2;0.2;;;;;;;22.0;100.0;101320;;;;
2022/08/25 05:58:00;;;;;;;0.2;0.2;;;;;;;22.1;100.0;101320;;;;
2022/08/25 05:59:00;;;;;;;0.2;0.2;;;;;;;22.1;100.0;101320;;;;
2022/08/25 06:00:00;;;;;;;0.2;0.2;;;;;;;22.1;100.0;101330;;;;
2022/08/25 06:02:39;;;;;;;0.2;0.2;;;;;;;22.1;100.0;101330;;;;
2022/08/25 06:03:00;;;;;;;0.2;0.2;;;;;;;22.2;100.0;101330;;;;
2022/08/25 06:04:01;;;;;;;0.2;0.2;;;;;;;22.3;100.0;101330;;;;
2022/08/25 06:05:00;;;;;;;0.2;0.2;;;;;;;22.3;100.0;101330;;;;
2022/08/25 06:06:07;;;;;;;0.2;0.2;;;;;;;22.3;100.0;101330;;;;
2022/08/25 06:07:00;;;;;;;0.2;0.2;;;;;;;22.3;100.0;101330;;;;
2022/08/25 06:08:00;;;;;;;0.2;0.2;;;;;;;22.3;100.0;101330;;;;
2022/08/25 06:09:01;;;;;;;0.2;0.2;;;;;;;22.3;100.0;101330;;;;
2022/08/25 06:10:00;;;;;;;0.2;0.2;;;;;;;22.4;100.0;101330;;;;
2022/08/25 06:11:00;;;;;;;0.2;0.2;;;;;;;22.4;100.0;101330;;;;
2022/08/25 06:12:00;;;;;;;0.2;0.2;;;;;;;22.4;100.0;101330;;;;
2022/08/25 06:13:00;;;;;;;0.2;0.2;;;;;;;22.4;100.0;101330;;;;
2022/08/25 06:14:00;;;;;;;0.1;0.1;;;;;;;22.4;100.0;101330;;;;
2022/08/25 06:15:00;;;;;;;0.1;0.1;;;;;;;22.4;100.0;101330;;;;
2022/08/25 06:16:00;;;;;;;0.1;0.1;;;;;;;22.6;100.0;101330;;;;
2022/08/25 06:17:00;;;;;;;0.1;0.1;;;;;;;22.6;100.0;101330;;;;
2022/08/25 06:18:03;;;;;;;0.1;0.1;;;;;;;22.7;100.0;101320;;;;
2022/08/25 06:19:00;;;;;;;0.1;0.1;;;;;;;22.7;100.0;101320;;;;
2022/08/25 06:20:02;;;;;;;0.1;0.1;;;;;;;22.8;100.0;101330;;;;
2022/08/25 06:21:07;;;;;;;0.1;0.1;;;;;;;22.8;100.0;101330;;;;
2022/08/25 06:22:00;;;;;;;0.1;0.1;;;;;;;22.9;100.0;101320;;;;
2022/08/25 06:23:00;;;;;;;0.1;0.1;;;;;;;22.9;100.0;101320;;;;
2022/08/25 06:24:00;;;;;;;0.1;0.1;;;;;;;22.8;100.0;101320;;;;
2022/08/25 06:25:02;;;;;;;0.1;0.1;;;;;;;22.8;100.0;101320;;;;
2022/08/25 06:26:00;;;;;;;0.1;0.1;;;;;;;22.7;100.0;101320;;;;